Time;durP1;ratioP1;P1;durP2;ratioP2;P2;SDS_P1;SDS_P2;PMS_P1;PMS_P2;Temp;Humidity;BMP_temperature;BMP_pressure;BME280_temperature;BME280_humidity;BME280_pressure;Samples;Min_cycle;Max_cycle;Signal;HPM_P1;HPM_P2
2023/06/24 00:02:12;;;;;;;;;;;;;;;21.92;29.14;98029.13;5023545;28;906;-80
2023/06/24 00:04:37;;;;;;;;;;;;;;;21.67;29.56;98021.28;5038889;28;1850;-79
2023/06/24 00:07:03;;;;;;;;;;;;;;;21.81;29.18;98018.88;5023425;28;992;-80
2023/06/24 00:09:29;;;;;;;;;;;;;;;21.87;29.22;98021.97;5022362;28;960;-79
2023/06/24 00:11:55;;;;;;;;;;;;;;;22.14;28.60;98018.81;5007067;28;776;-80
2023/06/24 00:14:23;;;;;;;;;;;;;;;21.92;29.10;98017.78;5021242;28;1977;-80
2023/06/24 00:16:51;;;;;;;;;;;;;;;22.07;28.71;98018.97;5018553;28;958;-80
2023/06/24 00:19:20;;;;;;;;;;;;;;;21.97;29.07;98020.88;4985495;28;946;-79
2023/06/24 00:21:46;;;;;;;;;;;;;;;21.93;28.87;98013.72;4985690;28;918;-80
2023/06/24 00:24:11;;;;;;;;;;;;;;;22.06;28.83;98017.38;4981126;28;1463;-80
2023/06/24 00:26:37;;;;;;;;;;;;;;;21.46;30.00;98008.50;4966653;28;1286;-80
2023/06/24 00:29:02;;;;;;;;;;;;;;;21.88;29.00;98008.59;4965564;28;1283;-80
2023/06/24 00:31:28;;;;;;;;;;;;;;;21.92;28.81;98000.78;4982913;28;1098;-80
2023/06/24 00:33:53;;;;;;;;;;;;;;;22.04;28.88;97988.69;4973327;28;1674;-80
2023/06/24 00:36:19;;;;;;;;;;;;;;;22.06;28.60;97989.03;5001773;28;1918;-80
2023/06/24 00:38:45;;;;;;;;;;;;;;;21.88;28.77;97994.44;4984808;28;1142;-80
2023/06/24 00:41:10;;;;;;;;;;;;;;;21.88;28.90;98002.94;4976132;28;1693;-80
2023/06/24 00:43:37;;;;;;;;;;;;;;;22.03;28.74;97989.94;4965234;28;1163;-80
2023/06/24 00:46:03;;;;;;;;;;;;;;;21.92;28.94;97993.09;4967186;28;1193;-80
2023/06/24 00:48:29;;;;;;;;;;;;;;;21.95;29.01;97994.22;5014774;28;984;-80
2023/06/24 00:50:58;;;;;;;;;;;;;;;22.00;28.92;98002.16;5031571;28;1370;-79
2023/06/24 00:53:25;;;;;;;;;;;;;;;21.71;29.10;97993.66;5038613;28;1024;-80
2023/06/24 00:55:52;;;;;;;;;;;;;;;21.85;29.25;97996.91;5006681;28;1914;-80
2023/06/24 00:58:20;;;;;;;;;;;;;;;21.97;28.80;97991.75;5021360;28;933;-80
2023/06/24 01:00:46;;;;;;;;;;;;;;;21.74;29.26;97996.41;5005944;28;1752;-80
2023/06/24 01:03:16;;;;;;;;;;;;;;;21.96;29.21;97984.47;5004972;28;971;-80
2023/06/24 01:05:42;;;;;;;;;;;;;;;22.03;28.92;97989.94;5006617;28;923;-80
2023/06/24 01:08:07;;;;;;;;;;;;;;;21.99;29.41;97981.53;5022220;28;888;-80
2023/06/24 01:10:33;;;;;;;;;;;;;;;22.21;29.18;97983.78;5025081;28;1656;-79
2023/06/24 01:12:58;;;;;;;;;;;;;;;22.01;29.47;97981.09;5043773;28;886;-80
2023/06/24 01:15:28;;;;;;;;;;;;;;;22.05;29.24;97978.94;5042473;28;1914;-80
2023/06/24 01:18:06;;;;;;;;;;;;;;;22.27;29.28;97971.44;5009835;28;952;-80
2023/06/24 01:20:50;;;;;;;;;;;;;;;22.19;29.29;97970.06;5043575;28;1952;-80
2023/06/24 01:23:22;;;;;;;;;;;;;;;22.26;29.46;97969.06;5005422;28;1142;-80
2023/06/24 01:26:06;;;;;;;;;;;;;;;22.16;29.81;97970.97;4998799;28;1195;-80
2023/06/24 01:28:34;;;;;;;;;;;;;;;22.03;29.85;97962.41;4981351;28;1017;-80
2023/06/24 01:31:18;;;;;;;;;;;;;;;22.20;29.50;97959.53;4993985;28;1780;-80
2023/06/24 01:33:49;;;;;;;;;;;;;;;22.05;30.06;97954.25;5001444;28;1244;-80
2023/06/24 01:36:15;;;;;;;;;;;;;;;22.00;30.25;97954.78;4985504;28;1969;-80
2023/06/24 01:38:46;;;;;;;;;;;;;;;21.97;30.04;97947.22;4969197;28;1495;-80
2023/06/24 01:41:12;;;;;;;;;;;;;;;22.11;29.73;97951.69;4969163;28;2007;-80
2023/06/24 01:43:37;;;;;;;;;;;;;;;21.88;30.18;97949.09;4968197;28;1250;-80
2023/06/24 01:46:03;;;;;;;;;;;;;;;22.13;29.99;97948.41;4970054;28;927;-79
2023/06/24 01:48:28;;;;;;;;;;;;;;;22.18;29.87;97947.88;4968332;28;1058;-80
2023/06/24 01:51:01;;;;;;;;;;;;;;;22.38;29.60;97950.47;4985313;28;1310;-80
2023/06/24 01:53:27;;;;;;;;;;;;;;;22.02;30.05;97949.50;4951881;28;1336;-80
2023/06/24 01:55:53;;;;;;;;;;;;;;;22.16;30.09;97953.16;4975455;28;1915;-80
2023/06/24 01:58:18;;;;;;;;;;;;;;;22.03;30.03;97950.28;4991775;28;1242;-80
2023/06/24 02:00:44;;;;;;;;;;;;;;;21.95;30.14;97951.72;5004890;28;1676;-80
2023/06/24 02:03:09;;;;;;;;;;;;;;;21.85;30.39;97948.75;5003872;28;1028;-80
2023/06/24 02:05:35;;;;;;;;;;;;;;;22.12;30.10;97946.81;5005015;28;1140;-80
2023/06/24 02:08:01;;;;;;;;;;;;;;;21.99;30.04;97949.59;4964605;28;1065;-80
2023/06/24 02:10:27;;;;;;;;;;;;;;;22.23;29.83;97962.25;4945235;29;1778;-80
2023/06/24 02:12:53;;;;;;;;;;;;;;;22.10;30.23;97967.06;4962541;29;990;-80
2023/06/24 02:15:19;;;;;;;;;;;;;;;22.09;30.01;97959.81;4961983;28;1918;-80
2023/06/24 02:17:47;;;;;;;;;;;;;;;22.12;29.88;97964.59;4962208;29;1070;-80
2023/06/24 02:20:12;;;;;;;;;;;;;;;22.14;29.86;97967.78;4961019;28;1902;-80
2023/06/24 02:22:39;;;;;;;;;;;;;;;22.28;29.66;97964.53;4961108;28;871;-80
2023/06/24 02:25:04;;;;;;;;;;;;;;;21.85;30.58;97968.56;4942295;29;993;-80
2023/06/24 02:27:31;;;;;;;;;;;;;;;21.87;30.10;97967.34;4943263;29;966;-80
2023/06/24 02:29:57;;;;;;;;;;;;;;;21.91;30.54;97976.53;4940585;29;1537;-80
2023/06/24 02:32:24;;;;;;;;;;;;;;;22.27;29.55;97981.97;4923700;29;1086;-80
2023/06/24 02:34:51;;;;;;;;;;;;;;;22.16;29.91;97970.97;4923612;29;1914;-80
2023/06/24 02:37:17;;;;;;;;;;;;;;;22.22;29.69;97980.50;4942229;29;1611;-80
2023/06/24 02:39:44;;;;;;;;;;;;;;;22.15;30.07;97979.91;4942151;29;953;-80
2023/06/24 02:42:12;;;;;;;;;;;;;;;22.10;29.94;97978.41;4908572;29;956;-80
2023/06/24 02:44:38;;;;;;;;;;;;;;;22.11;29.94;97977.19;4911047;29;1172;-80
2023/06/24 02:47:04;;;;;;;;;;;;;;;21.98;30.18;97988.47;4940372;29;1722;-80
2023/06/24 02:49:29;;;;;;;;;;;;;;;22.06;29.97;97983.38;4973980;28;953;-80
2023/06/24 02:51:55;;;;;;;;;;;;;;;22.14;29.99;97984.78;4958076;29;916;-80
2023/06/24 02:54:20;;;;;;;;;;;;;;;22.17;29.65;97983.09;4941750;29;1906;-80
2023/06/24 02:57:15;;;;;;;;;;;;;;;22.31;29.73;97989.13;4941904;29;1501;-80
2023/06/24 03:00:12;;;;;;;;;;;;;;;22.34;29.60;97988.25;4941494;29;1153;-79
2023/06/24 03:02:57;;;;;;;;;;;;;;;22.22;29.61;97980.50;4939165;29;2279;-80
2023/06/24 03:05:25;;;;;;;;;;;;;;;22.01;30.16;97987.53;4941476;29;958;-80
2023/06/24 03:07:53;;;;;;;;;;;;;;;22.31;29.85;97994.00;4941352;29;1632;-80
2023/06/24 03:10:19;;;;;;;;;;;;;;;22.16;30.13;97993.63;4903785;29;1397;-80
2023/06/24 03:12:47;;;;;;;;;;;;;;;22.36;29.66;97993.47;4859100;29;1761;-80
2023/06/24 03:15:12;;;;;;;;;;;;;;;22.34;30.01;97999.59;4868868;29;1982;-80
2023/06/24 03:17:38;;;;;;;;;;;;;;;22.39;29.60;98000.28;4869692;29;1170;-80
2023/06/24 03:20:05;;;;;;;;;;;;;;;22.23;30.12;98006.81;4894740;29;1201;-79
2023/06/24 03:22:31;;;;;;;;;;;;;;;22.14;30.40;98006.69;4905999;29;1607;-80
2023/06/24 03:24:56;;;;;;;;;;;;;;;22.28;30.00;98007.06;4905937;29;1712;-80
2023/06/24 03:27:22;;;;;;;;;;;;;;;22.14;30.02;98001.81;4907024;29;1201;-80
2023/06/24 03:29:49;;;;;;;;;;;;;;;22.36;29.89;98002.75;4906429;29;1462;-80
2023/06/24 03:32:14;;;;;;;;;;;;;;;22.32;29.79;98012.59;4905646;29;1926;-80
2023/06/24 03:34:41;;;;;;;;;;;;;;;22.42;29.87;98010.69;4944895;28;1910;-80
2023/06/24 03:37:08;;;;;;;;;;;;;;;22.25;30.29;98024.94;4980677;28;1229;-80
2023/06/24 03:39:37;;;;;;;;;;;;;;;22.14;30.23;98018.81;4979776;28;1180;-79
2023/06/24 03:42:04;;;;;;;;;;;;;;;22.12;30.49;98014.81;4995399;28;1434;-80
2023/06/24 03:44:30;;;;;;;;;;;;;;;22.35;29.94;98021.00;4963111;28;1244;-80
2023/06/24 03:46:56;;;;;;;;;;;;;;;22.49;29.92;98025.47;4958842;28;1260;-79
2023/06/24 03:49:21;;;;;;;;;;;;;;;22.44;29.70;98030.91;5005732;28;1273;-80
2023/06/24 03:51:47;;;;;;;;;;;;;;;22.36;29.94;98024.63;4990304;28;1783;-80
2023/06/24 03:54:13;;;;;;;;;;;;;;;22.42;30.01;98016.38;5021442;28;1882;-80
2023/06/24 03:56:39;;;;;;;;;;;;;;;22.40;29.91;98025.34;5021920;28;1418;-79
2023/06/24 03:59:04;;;;;;;;;;;;;;;22.39;29.97;98025.78;5005899;28;1266;-80
2023/06/24 04:01:31;;;;;;;;;;;;;;;22.19;30.34;98026.75;5040589;28;952;-80
2023/06/24 04:04:00;;;;;;;;;;;;;;;22.35;30.30;98034.41;5005464;28;1603;-80
2023/06/24 04:06:25;;;;;;;;;;;;;;;22.27;30.51;98030.16;5006194;28;1263;-79
2023/06/24 04:08:52;;;;;;;;;;;;;;;22.41;29.93;98034.63;5001861;28;1644;-79
2023/06/24 04:11:18;;;;;;;;;;;;;;;22.10;30.53;98046.41;5003079;28;1143;-80
2023/06/24 04:13:48;;;;;;;;;;;;;;;22.23;30.55;98043.66;5002065;28;1112;-79
2023/06/24 04:16:14;;;;;;;;;;;;;;;22.41;30.17;98037.47;5002487;28;1914;-80
2023/06/24 04:18:39;;;;;;;;;;;;;;;22.51;30.26;98042.03;5002290;28;1200;-79
2023/06/24 04:21:08;;;;;;;;;;;;;;;22.47;30.03;98041.34;5019590;28;1183;-80
2023/06/24 04:23:34;;;;;;;;;;;;;;;22.53;29.93;98050.88;5034310;28;897;-80
2023/06/24 04:25:59;;;;;;;;;;;;;;;22.61;29.89;98055.09;5019700;28;1310;-80
2023/06/24 04:28:25;;;;;;;;;;;;;;;22.48;29.96;98057.09;5034623;28;807;-79
2023/06/24 04:30:51;;;;;;;;;;;;;;;22.30;30.34;98055.59;5002772;28;1291;-79
2023/06/24 04:33:16;;;;;;;;;;;;;;;22.44;30.01;98060.06;5000324;28;1126;-80
2023/06/24 04:35:44;;;;;;;;;;;;;;;22.33;30.31;98068.88;4985362;28;1910;-80
2023/06/24 04:38:10;;;;;;;;;;;;;;;22.35;30.47;98069.22;5000409;28;1215;-80
2023/06/24 04:40:35;;;;;;;;;;;;;;;22.36;30.25;98065.13;4998500;28;1226;-80
2023/06/24 04:43:01;;;;;;;;;;;;;;;22.47;30.22;98064.03;4997841;28;899;-80
2023/06/24 04:45:26;;;;;;;;;;;;;;;22.39;30.20;98065.50;5003009;28;1400;-79
2023/06/24 04:47:52;;;;;;;;;;;;;;;22.49;30.43;98067.22;4972452;28;819;-79
2023/06/24 04:50:17;;;;;;;;;;;;;;;22.53;30.03;98073.56;4949356;29;1104;-80
2023/06/24 04:52:44;;;;;;;;;;;;;;;22.18;30.90;98076.19;4949558;29;1275;-79
2023/06/24 04:55:10;;;;;;;;;;;;;;;22.41;30.21;98072.28;4933614;29;1977;-79
2023/06/24 04:57:35;;;;;;;;;;;;;;;22.55;30.33;98066.22;4966168;28;1264;-79
2023/06/24 05:00:01;;;;;;;;;;;;;;;22.25;30.71;98069.50;4964900;28;954;-79
2023/06/24 05:02:26;;;;;;;;;;;;;;;22.38;30.36;98064.66;4950151;29;1179;-80
2023/06/24 05:04:52;;;;;;;;;;;;;;;22.50;30.31;98082.97;4934553;29;1199;-80
2023/06/24 05:07:18;;;;;;;;;;;;;;;22.63;30.30;98073.25;4946250;29;895;-80
2023/06/24 05:09:45;;;;;;;;;;;;;;;22.55;30.32;98082.44;4961714;28;1010;-80
2023/06/24 05:12:10;;;;;;;;;;;;;;;22.42;30.64;98084.41;4991586;28;1270;-79
2023/06/24 05:14:36;;;;;;;;;;;;;;;22.24;30.83;98063.06;4984124;28;1994;-80
2023/06/24 05:17:02;;;;;;;;;;;;;;;22.55;30.36;98068.25;4968899;28;976;-80
2023/06/24 05:19:27;;;;;;;;;;;;;;;22.67;30.32;98073.16;4968475;28;971;-80
2023/06/24 05:21:52;;;;;;;;;;;;;;;22.44;30.69;98071.41;4999254;28;978;-80
2023/06/24 05:24:18;;;;;;;;;;;;;;;22.67;30.16;98070.31;5025508;28;871;-80
2023/06/24 05:26:44;;;;;;;;;;;;;;;22.68;30.41;98071.88;5024135;28;894;-79
2023/06/24 05:29:11;;;;;;;;;;;;;;;22.54;30.37;98078.00;5040625;28;927;-80
2023/06/24 05:31:37;;;;;;;;;;;;;;;22.63;30.50;98084.59;5008422;28;823;-80
2023/06/24 05:34:02;;;;;;;;;;;;;;;22.42;30.86;98090.09;5024750;28;1214;-80
2023/06/24 05:36:28;;;;;;;;;;;;;;;22.45;30.87;98080.69;5008783;28;1906;-80
2023/06/24 05:38:53;;;;;;;;;;;;;;;22.67;30.42;98087.31;5041576;28;836;-80
2023/06/24 05:41:19;;;;;;;;;;;;;;;22.56;30.37;98084.00;5008910;28;1417;-79
2023/06/24 05:43:44;;;;;;;;;;;;;;;22.43;30.92;98083.97;4983604;28;929;-79
2023/06/24 05:46:10;;;;;;;;;;;;;;;22.65;30.48;98081.31;4985127;28;1012;-80
2023/06/24 05:48:35;;;;;;;;;;;;;;;22.53;30.90;98085.69;4983566;28;1130;-80
2023/06/24 05:51:01;;;;;;;;;;;;;;;22.59;30.43;98077.44;4985698;28;1145;-80
2023/06/24 05:53:26;;;;;;;;;;;;;;;22.36;31.03;98076.47;4983782;28;1100;-80
2023/06/24 05:55:52;;;;;;;;;;;;;;;22.42;31.12;98073.06;4983610;28;1907;-80
2023/06/24 05:58:17;;;;;;;;;;;;;;;22.71;30.48;98079.50;4980952;28;1128;-79
2023/06/24 06:00:43;;;;;;;;;;;;;;;22.62;30.95;98076.53;4998173;28;957;-79
2023/06/24 06:03:09;;;;;;;;;;;;;;;22.71;30.50;98068.16;4964668;28;847;-79
2023/06/24 06:05:34;;;;;;;;;;;;;;;22.54;30.87;98066.66;4965879;28;1311;-79
2023/06/24 06:08:00;;;;;;;;;;;;;;;22.60;30.94;98067.69;4997036;28;932;-79
2023/06/24 06:10:25;;;;;;;;;;;;;;;22.52;30.86;98066.31;4968207;28;1290;-79
2023/06/24 06:12:52;;;;;;;;;;;;;;;22.50;31.13;98063.13;4984093;28;963;-79
2023/06/24 06:15:18;;;;;;;;;;;;;;;22.62;30.90;98074.50;5010301;28;1902;-79
2023/06/24 06:17:44;;;;;;;;;;;;;;;22.43;31.25;98069.00;4988236;28;1164;-79
2023/06/24 06:20:10;;;;;;;;;;;;;;;22.66;30.85;98060.22;5003220;28;964;-79
2023/06/24 06:22:37;;;;;;;;;;;;;;;22.64;30.84;98059.88;5004220;28;987;-79
2023/06/24 06:25:04;;;;;;;;;;;;;;;22.57;30.83;98062.91;5002851;28;1014;-79
2023/06/24 06:27:29;;;;;;;;;;;;;;;22.42;31.23;98058.91;4988044;28;897;-79
2023/06/24 06:29:55;;;;;;;;;;;;;;;22.58;30.99;98070.16;5019565;28;950;-79
2023/06/24 06:32:20;;;;;;;;;;;;;;;22.56;30.93;98058.50;5020490;28;1129;-79
2023/06/24 06:34:46;;;;;;;;;;;;;;;22.60;30.88;98067.69;5002961;28;1894;-79
2023/06/24 06:37:11;;;;;;;;;;;;;;;22.66;30.83;98059.41;4980713;28;1130;-79
2023/06/24 06:39:37;;;;;;;;;;;;;;;22.52;31.13;98066.31;4964453;28;1234;-79
2023/06/24 06:42:02;;;;;;;;;;;;;;;22.63;30.96;98063.94;4915189;29;1258;-79
2023/06/24 06:44:28;;;;;;;;;;;;;;;22.31;31.30;98067.72;4925908;29;1011;-79
2023/06/24 06:46:53;;;;;;;;;;;;;;;22.59;31.12;98063.28;4937675;29;907;-79
2023/06/24 06:49:19;;;;;;;;;;;;;;;22.60;31.15;98053.50;4941786;29;1240;-79
2023/06/24 06:51:44;;;;;;;;;;;;;;;22.39;31.32;98062.66;4942452;29;1190;-79
2023/06/24 06:54:10;;;;;;;;;;;;;;;22.38;31.34;98044.81;4925524;29;962;-79
2023/06/24 06:56:35;;;;;;;;;;;;;;;22.63;31.22;98044.88;4942216;29;1907;-79
2023/06/24 06:59:01;;;;;;;;;;;;;;;22.65;30.88;98050.13;4941336;29;1058;-77
2023/06/24 07:01:26;;;;;;;;;;;;;;;22.48;31.35;98042.91;4927195;29;1140;-79
2023/06/24 07:03:52;;;;;;;;;;;;;;;22.67;31.08;98050.44;4925559;29;854;-79
2023/06/24 07:06:19;;;;;;;;;;;;;;;22.33;31.75;98045.41;4942661;29;894;-79
2023/06/24 07:08:44;;;;;;;;;;;;;;;22.43;31.29;98043.47;4955229;29;938;-79
2023/06/24 07:11:10;;;;;;;;;;;;;;;22.32;31.73;98041.75;4962123;28;907;-80
2023/06/24 07:13:35;;;;;;;;;;;;;;;22.65;31.19;98047.28;4977745;28;1132;-79
2023/06/24 07:16:01;;;;;;;;;;;;;;;22.83;30.78;98053.19;4983963;28;1964;-79
2023/06/24 07:18:30;;;;;;;;;;;;;;;22.40;31.37;98048.03;4982526;28;1093;-79
2023/06/24 07:20:55;;;;;;;;;;;;;;;22.49;31.25;98050.19;4984094;28;1100;-79
2023/06/24 07:23:21;;;;;;;;;;;;;;;22.68;31.07;98054.88;4985448;28;920;-79
2023/06/24 07:25:46;;;;;;;;;;;;;;;22.81;30.90;98050.03;5037479;28;914;-79
2023/06/24 07:28:12;;;;;;;;;;;;;;;22.66;31.41;98048.88;5020779;28;876;-78
2023/06/24 07:30:37;;;;;;;;;;;;;;;22.45;31.69;98055.19;5004237;28;1120;-79
2023/06/24 07:33:05;;;;;;;;;;;;;;;22.69;31.22;98059.31;5002830;28;1118;-79
2023/06/24 07:35:31;;;;;;;;;;;;;;;22.46;31.41;98057.56;4995750;28;2007;-79
2023/06/24 07:37:57;;;;;;;;;;;;;;;22.71;31.24;98051.16;4941228;29;985;-79
2023/06/24 07:40:22;;;;;;;;;;;;;;;22.84;31.03;98054.78;4941032;29;975;-79
2023/06/24 07:42:48;;;;;;;;;;;;;;;22.71;31.40;98068.16;4957287;29;1267;-79
2023/06/24 07:45:14;;;;;;;;;;;;;;;22.72;31.12;98064.06;4940936;29;951;-79
2023/06/24 07:47:39;;;;;;;;;;;;;;;22.96;30.82;98061.75;4941021;29;980;-79
2023/06/24 07:50:06;;;;;;;;;;;;;;;22.77;30.94;98055.00;4956305;29;1078;-79
2023/06/24 07:52:31;;;;;;;;;;;;;;;22.75;31.24;98059.56;4926493;29;783;-79
2023/06/24 07:54:57;;;;;;;;;;;;;;;22.67;31.38;98056.13;4939798;29;1946;-79
2023/06/24 07:57:22;;;;;;;;;;;;;;;22.86;30.93;98057.97;4941178;29;1110;-79
2023/06/24 07:59:48;;;;;;;;;;;;;;;22.41;32.05;98057.31;4940782;29;1230;-79
2023/06/24 08:02:13;;;;;;;;;;;;;;;22.66;31.67;98059.41;4957156;29;968;-79
2023/06/24 08:04:39;;;;;;;;;;;;;;;22.66;31.57;98060.22;4940783;29;874;-80
2023/06/24 08:07:04;;;;;;;;;;;;;;;22.70;31.31;98060.91;4971685;28;1012;-79
2023/06/24 08:09:30;;;;;;;;;;;;;;;22.66;31.46;98057.38;4975638;28;1208;-79
2023/06/24 08:11:55;;;;;;;;;;;;;;;22.90;31.30;98065.59;4940802;29;925;-79
2023/06/24 08:14:21;;;;;;;;;;;;;;;22.80;31.34;98059.00;4929145;28;1107;-79
2023/06/24 08:16:46;;;;;;;;;;;;;;;22.92;31.31;98066.75;4982982;28;2371;-79
2023/06/24 08:19:12;;;;;;;;;;;;;;;22.93;31.02;98059.03;4997220;28;982;-79
2023/06/24 08:21:37;;;;;;;;;;;;;;;22.92;31.13;98061.06;4998669;28;930;-79
2023/06/24 08:24:03;;;;;;;;;;;;;;;22.82;31.29;98062.97;4998198;28;1015;-79
2023/06/24 08:26:29;;;;;;;;;;;;;;;22.67;31.55;98055.34;4998187;28;940;-79
2023/06/24 08:28:54;;;;;;;;;;;;;;;22.84;31.35;98051.94;4978335;28;942;-79
2023/06/24 08:31:22;;;;;;;;;;;;;;;22.74;31.80;98052.28;4978982;28;901;-79
2023/06/24 08:33:48;;;;;;;;;;;;;;;22.82;31.39;98051.63;4961901;28;1063;-79
2023/06/24 08:36:13;;;;;;;;;;;;;;;22.93;31.24;98059.03;4977016;28;1977;-79
2023/06/24 08:38:39;;;;;;;;;;;;;;;22.69;31.28;98052.81;4978271;28;1213;-80
2023/06/24 08:41:04;;;;;;;;;;;;;;;22.73;31.40;98056.34;4960037;29;1128;-79
2023/06/24 08:43:30;;;;;;;;;;;;;;;22.83;31.17;98058.06;4912843;29;1123;-79
2023/06/24 08:45:55;;;;;;;;;;;;;;;23.04;30.67;98053.81;4941555;29;983;-79
2023/06/24 08:48:21;;;;;;;;;;;;;;;22.53;31.41;98048.03;4939661;29;881;-79
2023/06/24 08:50:48;;;;;;;;;;;;;;;22.48;31.71;98059.94;4956862;28;894;-79
2023/06/24 08:53:14;;;;;;;;;;;;;;;22.63;31.24;98061.09;4955576;28;971;-78
2023/06/24 08:55:40;;;;;;;;;;;;;;;22.62;31.22;98065.97;4940349;29;1911;-79
2023/06/24 08:58:05;;;;;;;;;;;;;;;22.75;31.15;98057.50;4955511;28;876;-79
2023/06/24 09:00:31;;;;;;;;;;;;;;;22.93;30.68;98064.69;5000789;28;885;-79
2023/06/24 09:02:56;;;;;;;;;;;;;;;22.64;31.15;98059.88;4981740;28;798;-79
2023/06/24 09:05:22;;;;;;;;;;;;;;;22.55;31.24;98054.06;4997828;28;908;-79
2023/06/24 09:07:48;;;;;;;;;;;;;;;22.92;30.62;98048.94;4965871;28;1161;-79
2023/06/24 09:10:29;;;;;;;;;;;;;;;22.76;31.03;98049.78;4964890;28;1148;-79
2023/06/24 09:12:54;;;;;;;;;;;;;;;22.82;30.58;98057.28;4981826;28;946;-79
2023/06/24 09:15:20;;;;;;;;;;;;;;;22.87;30.71;98059.56;4981204;28;1907;-79
2023/06/24 09:17:48;;;;;;;;;;;;;;;22.47;31.14;98052.69;4986331;28;897;-79
2023/06/24 09:20:14;;;;;;;;;;;;;;;22.60;31.29;98056.34;5017615;28;750;-79
2023/06/24 09:22:42;;;;;;;;;;;;;;;22.70;30.92;98054.44;5019060;28;1227;-79
2023/06/24 09:25:08;;;;;;;;;;;;;;;22.62;31.02;98059.53;5049677;28;1046;-79
2023/06/24 09:27:33;;;;;;;;;;;;;;;22.53;31.06;98063.00;5039468;28;953;-79
2023/06/24 09:29:59;;;;;;;;;;;;;;;22.57;31.06;98057.25;5021896;28;1214;-79
2023/06/24 09:32:30;;;;;;;;;;;;;;;22.57;31.30;98062.91;5043981;28;1163;-79
2023/06/24 09:34:56;;;;;;;;;;;;;;;22.84;30.75;98065.34;5024852;28;1879;-79
2023/06/24 09:37:23;;;;;;;;;;;;;;;22.73;30.77;98065.66;5043506;28;859;-79
2023/06/24 09:39:48;;;;;;;;;;;;;;;22.73;30.95;98057.16;5008532;28;872;-79
2023/06/24 09:42:14;;;;;;;;;;;;;;;22.99;30.37;98060.84;5043240;28;911;-79
2023/06/24 09:44:40;;;;;;;;;;;;;;;22.68;30.78;98057.72;5008896;28;1239;-79
2023/06/24 09:47:05;;;;;;;;;;;;;;;22.81;30.74;98055.69;5025450;28;938;-79
2023/06/24 09:49:31;;;;;;;;;;;;;;;22.74;30.95;98058.75;5025174;28;1178;-79
2023/06/24 09:52:00;;;;;;;;;;;;;;;22.72;30.90;98054.78;5044069;28;884;-79
2023/06/24 09:54:30;;;;;;;;;;;;;;;22.62;31.09;98054.63;5008569;28;1902;-79
2023/06/24 09:56:59;;;;;;;;;;;;;;;22.67;31.06;98053.28;5026001;28;715;-79
2023/06/24 09:59:25;;;;;;;;;;;;;;;22.61;31.16;98046.59;5007663;28;1191;-79
2023/06/24 10:01:52;;;;;;;;;;;;;;;22.59;31.13;98054.78;5009120;28;943;-79
2023/06/24 10:04:18;;;;;;;;;;;;;;;22.73;30.98;98054.31;5024086;28;875;-79
2023/06/24 10:06:43;;;;;;;;;;;;;;;22.80;30.64;98056.16;5009124;28;999;-79
2023/06/24 10:09:09;;;;;;;;;;;;;;;22.73;30.85;98048.63;5042455;28;908;-80
2023/06/24 10:11:34;;;;;;;;;;;;;;;22.78;30.68;98045.25;5009139;28;931;-79
2023/06/24 10:14:00;;;;;;;;;;;;;;;22.79;30.62;98046.81;5007979;28;1129;-79
2023/06/24 10:16:25;;;;;;;;;;;;;;;22.56;30.96;98050.78;5005470;28;1895;-79
2023/06/24 10:18:51;;;;;;;;;;;;;;;22.51;31.22;98053.38;5020704;28;1354;-79
2023/06/24 10:21:16;;;;;;;;;;;;;;;22.62;30.98;98048.19;5037679;28;929;-79
2023/06/24 10:23:48;;;;;;;;;;;;;;;22.91;30.38;98041.66;5019746;28;1235;-78
2023/06/24 10:26:28;;;;;;;;;;;;;;;22.68;30.80;98031.41;5001074;28;970;-79
2023/06/24 10:29:05;;;;;;;;;;;;;;;22.63;30.97;98038.41;4984185;28;1331;-79
2023/06/24 10:31:40;;;;;;;;;;;;;;;22.80;30.68;98034.25;4984765;28;1042;-79
2023/06/24 10:34:27;;;;;;;;;;;;;;;22.53;31.37;98040.31;4980729;28;1302;-79
2023/06/24 10:36:53;;;;;;;;;;;;;;;22.75;30.89;98045.38;4997434;28;1910;-79
2023/06/24 10:39:34;;;;;;;;;;;;;;;22.32;31.64;98036.06;4980420;28;1240;-79
2023/06/24 10:42:20;;;;;;;;;;;;;;;22.44;31.36;98037.38;4980452;28;1243;-79
2023/06/24 10:44:46;;;;;;;;;;;;;;;22.11;32.02;98042.34;4980420;28;1070;-79
2023/06/24 10:47:11;;;;;;;;;;;;;;;22.51;31.29;98036.34;4980689;28;975;-79
2023/06/24 10:49:37;;;;;;;;;;;;;;;22.44;31.31;98026.03;4980343;28;951;-79
2023/06/24 10:52:02;;;;;;;;;;;;;;;22.60;31.11;98028.00;4956682;29;949;-79
2023/06/24 10:54:28;;;;;;;;;;;;;;;22.76;30.75;98025.06;4976871;28;929;-79
2023/06/24 10:56:54;;;;;;;;;;;;;;;22.50;31.01;98029.09;4984533;28;1974;-79
2023/06/24 10:59:20;;;;;;;;;;;;;;;22.65;30.99;98030.28;4990957;28;1228;-79
2023/06/24 11:01:54;;;;;;;;;;;;;;;22.78;30.70;98028.22;4977272;28;1085;-79
2023/06/24 11:04:19;;;;;;;;;;;;;;;23.04;30.07;98016.91;4972054;28;1027;-80
2023/06/24 11:07:00;;;;;;;;;;;;;;;22.98;30.21;98018.75;5022144;28;870;-79
2023/06/24 11:09:26;;;;;;;;;;;;;;;22.84;30.79;98026.41;5035904;28;878;-79
2023/06/24 11:11:52;;;;;;;;;;;;;;;22.71;30.74;98013.47;5021745;28;805;-79
2023/06/24 11:14:17;;;;;;;;;;;;;;;22.70;30.75;98020.41;5036133;28;938;-79
2023/06/24 11:16:45;;;;;;;;;;;;;;;22.78;30.51;98013.25;5036739;28;1906;-79
2023/06/24 11:19:10;;;;;;;;;;;;;;;22.83;30.45;98002.13;5036332;28;901;-79
2023/06/24 11:21:35;;;;;;;;;;;;;;;22.72;30.97;98007.34;5019476;28;956;-79
2023/06/24 11:24:04;;;;;;;;;;;;;;;22.70;30.58;98007.03;5018883;28;1009;-79
2023/06/24 11:26:29;;;;;;;;;;;;;;;22.60;30.91;97991.13;5002949;28;971;-79
2023/06/24 11:28:55;;;;;;;;;;;;;;;22.43;31.31;97993.22;5001762;28;1259;-79
2023/06/24 11:31:26;;;;;;;;;;;;;;;22.54;31.18;97990.09;4986376;28;949;-79
2023/06/24 11:33:52;;;;;;;;;;;;;;;22.73;30.80;97989.06;5001228;28;1248;-79
2023/06/24 11:36:18;;;;;;;;;;;;;;;22.68;30.88;97986.81;5002690;28;1985;-79
2023/06/24 11:38:45;;;;;;;;;;;;;;;22.63;31.04;97987.38;4985348;28;1066;-79
2023/06/24 11:41:11;;;;;;;;;;;;;;;22.62;31.05;97991.47;5002833;28;904;-79
2023/06/24 11:43:36;;;;;;;;;;;;;;;22.74;30.57;97987.84;5001290;28;869;-79
2023/06/24 11:46:02;;;;;;;;;;;;;;;22.90;30.44;97980.47;5003681;28;934;-79
2023/06/24 11:48:28;;;;;;;;;;;;;;;22.38;31.20;97976.00;4984959;28;998;-79
2023/06/24 11:50:54;;;;;;;;;;;;;;;22.54;30.92;97978.75;5002669;28;886;-79
2023/06/24 11:53:30;;;;;;;;;;;;;;;22.61;31.03;97970.03;4986169;28;1278;-80
2023/06/24 11:55:56;;;;;;;;;;;;;;;22.67;30.93;97981.59;5036846;28;1910;-79
2023/06/24 11:58:21;;;;;;;;;;;;;;;22.61;31.09;97979.31;5018974;28;1104;-79
2023/06/24 12:00:48;;;;;;;;;;;;;;;22.75;30.83;97982.97;5020366;28;1271;-79
2023/06/24 12:03:13;;;;;;;;;;;;;;;22.80;30.69;97980.34;5019384;28;895;-79
2023/06/24 12:05:44;;;;;;;;;;;;;;;22.54;31.18;97973.09;5036378;28;907;-79
2023/06/24 12:08:10;;;;;;;;;;;;;;;22.35;31.22;97972.81;5034815;28;916;-79
2023/06/24 12:10:36;;;;;;;;;;;;;;;22.58;31.19;97973.75;5003484;28;1104;-79
2023/06/24 12:13:02;;;;;;;;;;;;;;;22.63;30.92;97981.69;5035481;28;733;-79
2023/06/24 12:15:28;;;;;;;;;;;;;;;22.74;30.63;97976.50;5002740;28;1985;-79
2023/06/24 12:17:53;;;;;;;;;;;;;;;22.76;30.79;97973.22;5019023;28;1163;-79
2023/06/24 12:20:19;;;;;;;;;;;;;;;22.82;30.47;97983.53;5002913;28;1210;-79
2023/06/24 12:22:45;;;;;;;;;;;;;;;22.83;30.38;97973.75;5018352;28;913;-79
2023/06/24 12:25:10;;;;;;;;;;;;;;;22.66;30.58;97986.47;4985826;28;1175;-79
2023/06/24 12:27:37;;;;;;;;;;;;;;;22.70;30.73;97975.81;5002138;28;1143;-80
2023/06/24 12:30:02;;;;;;;;;;;;;;;22.63;30.88;97987.38;5001497;28;918;-79
2023/06/24 12:32:28;;;;;;;;;;;;;;;22.66;30.74;97977.97;5002041;28;1277;-79
2023/06/24 12:34:53;;;;;;;;;;;;;;;22.91;30.16;97979.25;5017602;28;1903;-78
2023/06/24 12:37:19;;;;;;;;;;;;;;;22.90;30.26;97980.47;5001996;28;1025;-79
2023/06/24 12:39:45;;;;;;;;;;;;;;;22.73;30.63;97980.56;5001288;28;1222;-79
2023/06/24 12:42:10;;;;;;;;;;;;;;;22.73;30.78;97974.09;5002540;28;996;-79
2023/06/24 12:44:35;;;;;;;;;;;;;;;22.78;30.62;97980.00;4962089;28;1346;-79
2023/06/24 12:47:02;;;;;;;;;;;;;;;22.43;31.23;97978.25;4963893;28;1168;-79
2023/06/24 12:49:28;;;;;;;;;;;;;;;22.90;30.43;97963.47;4946483;28;1109;-79
2023/06/24 12:51:53;;;;;;;;;;;;;;;22.75;30.33;97966.75;4963548;28;1145;-79
2023/06/24 12:54:18;;;;;;;;;;;;;;;22.56;30.91;97962.88;4910180;29;1240;-80
2023/06/24 12:56:44;;;;;;;;;;;;;;;22.71;30.84;97963.22;4921864;29;1891;-79
2023/06/24 12:59:09;;;;;;;;;;;;;;;22.75;30.61;97966.75;4920909;29;865;-79